sensor_id;sensor_type;location;lat;lon;timestamp;P1;durP1;ratioP1;P2;durP2;ratioP2
78774;SDS011;68119;43.398;3.676;2023-03-01T00:00:15;14.93;;;9.88;;
78774;SDS011;68119;43.398;3.676;2023-03-01T00:02:47;14.18;;;9.48;;
78774;SDS011;68119;43.398;3.676;2023-03-01T00:05:20;12.60;;;9.40;;
78774;SDS011;68119;43.398;3.676;2023-03-01T00:07:54;14.18;;;9.77;;
78774;SDS011;68119;43.398;3.676;2023-03-01T00:10:29;13.25;;;9.80;;
78774;SDS011;68119;43.398;3.676;2023-03-01T00:12:57;13.02;;;8.23;;
78774;SDS011;68119;43.398;3.676;2023-03-01T00:15:26;12.85;;;9.45;;
78774;SDS011;68119;43.398;3.676;2023-03-01T00:17:54;13.80;;;9.48;;
78774;SDS011;68119;43.398;3.676;2023-03-01T00:20:22;13.75;;;9.50;;
78774;SDS011;68119;43.398;3.676;2023-03-01T00:22:53;12.40;;;9.70;;
78774;SDS011;68119;43.398;3.676;2023-03-01T00:25:21;13.80;;;8.93;;
78774;SDS011;68119;43.398;3.676;2023-03-01T00:27:47;11.60;;;9.07;;
78774;SDS011;68119;43.398;3.676;2023-03-01T00:30:15;12.43;;;9.73;;
78774;SDS011;68119;43.398;3.676;2023-03-01T00:32:44;14.50;;;9.40;;
78774;SDS011;68119;43.398;3.676;2023-03-01T00:35:15;13.52;;;9.82;;
78774;SDS011;68119;43.398;3.676;2023-03-01T00:37:43;12.82;;;9.82;;
78774;SDS011;68119;43.398;3.676;2023-03-01T00:40:26;11.27;;;9.35;;
78774;SDS011;68119;43.398;3.676;2023-03-01T00:42:59;12.75;;;9.82;;
78774;SDS011;68119;43.398;3.676;2023-03-01T00:45:27;12.45;;;9.35;;
78774;SDS011;68119;43.398;3.676;2023-03-01T00:47:58;13.25;;;10.02;;
78774;SDS011;68119;43.398;3.676;2023-03-01T00:50:30;11.98;;;9.55;;
78774;SDS011;68119;43.398;3.676;2023-03-01T00:52:59;13.02;;;9.07;;
78774;SDS011;68119;43.398;3.676;2023-03-01T00:55:25;11.85;;;9.18;;
78774;SDS011;68119;43.398;3.676;2023-03-01T00:57:56;12.68;;;9.02;;
78774;SDS011;68119;43.398;3.676;2023-03-01T01:00:27;11.18;;;9.10;;
78774;SDS011;68119;43.398;3.676;2023-03-01T01:02:53;11.70;;;9.18;;
78774;SDS011;68119;43.398;3.676;2023-03-01T01:05:23;12.52;;;9.10;;
78774;SDS011;68119;43.398;3.676;2023-03-01T01:07:49;12.35;;;8.90;;
78774;SDS011;68119;43.398;3.676;2023-03-01T01:10:19;12.90;;;9.05;;
78774;SDS011;68119;43.398;3.676;2023-03-01T01:12:48;12.85;;;9.13;;
78774;SDS011;68119;43.398;3.676;2023-03-01T01:15:13;10.98;;;8.75;;
78774;SDS011;68119;43.398;3.676;2023-03-01T01:17:47;11.63;;;8.52;;
78774;SDS011;68119;43.398;3.676;2023-03-01T01:20:18;11.18;;;8.35;;
78774;SDS011;68119;43.398;3.676;2023-03-01T01:22:46;11.18;;;8.27;;
78774;SDS011;68119;43.398;3.676;2023-03-01T01:25:12;11.75;;;8.40;;
78774;SDS011;68119;43.398;3.676;2023-03-01T01:27:40;12.80;;;8.20;;
78774;SDS011;68119;43.398;3.676;2023-03-01T01:30:06;11.27;;;8.48;;
78774;SDS011;68119;43.398;3.676;2023-03-01T01:32:34;10.25;;;8.40;;
78774;SDS011;68119;43.398;3.676;2023-03-01T01:35:02;11.80;;;8.80;;
78774;SDS011;68119;43.398;3.676;2023-03-01T01:37:30;11.52;;;8.15;;
78774;SDS011;68119;43.398;3.676;2023-03-01T01:40:02;12.10;;;8.68;;
78774;SDS011;68119;43.398;3.676;2023-03-01T01:42:31;11.70;;;8.82;;
78774;SDS011;68119;43.398;3.676;2023-03-01T01:48:03;12.93;;;8.40;;
78774;SDS011;68119;43.398;3.676;2023-03-01T01:50:47;11.45;;;8.35;;
78774;SDS011;68119;43.398;3.676;2023-03-01T01:53:18;11.82;;;8.75;;
78774;SDS011;68119;43.398;3.676;2023-03-01T01:55:47;12.82;;;8.55;;
78774;SDS011;68119;43.398;3.676;2023-03-01T01:58:17;12.55;;;8.50;;
78774;SDS011;68119;43.398;3.676;2023-03-01T02:00:51;11.70;;;7.80;;
78774;SDS011;68119;43.398;3.676;2023-03-01T02:03:19;10.27;;;8.15;;
78774;SDS011;68119;43.398;3.676;2023-03-01T02:08:25;12.18;;;7.68;;
78774;SDS011;68119;43.398;3.676;2023-03-01T02:10:57;11.90;;;7.82;;
78774;SDS011;68119;43.398;3.676;2023-03-01T02:13:29;10.80;;;7.82;;
78774;SDS011;68119;43.398;3.676;2023-03-01T02:16:02;9.98;;;7.68;;
78774;SDS011;68119;43.398;3.676;2023-03-01T02:18:36;9.70;;;7.95;;
78774;SDS011;68119;43.398;3.676;2023-03-01T02:23:44;11.27;;;8.27;;
78774;SDS011;68119;43.398;3.676;2023-03-01T02:26:23;10.60;;;7.53;;
78774;SDS011;68119;43.398;3.676;2023-03-01T02:29:12;11.20;;;8.00;;
78774;SDS011;68119;43.398;3.676;2023-03-01T02:31:38;10.90;;;7.78;;
78774;SDS011;68119;43.398;3.676;2023-03-01T02:34:16;10.38;;;7.72;;
78774;SDS011;68119;43.398;3.676;2023-03-01T02:36:58;9.57;;;7.45;;
78774;SDS011;68119;43.398;3.676;2023-03-01T02:39:40;10.43;;;7.32;;
78774;SDS011;68119;43.398;3.676;2023-03-01T02:42:14;9.85;;;7.15;;
78774;SDS011;68119;43.398;3.676;2023-03-01T02:44:50;9.30;;;6.97;;
78774;SDS011;68119;43.398;3.676;2023-03-01T02:47:23;10.30;;;7.43;;
78774;SDS011;68119;43.398;3.676;2023-03-01T02:49:51;10.43;;;7.10;;
78774;SDS011;68119;43.398;3.676;2023-03-01T02:55:13;9.82;;;7.05;;
78774;SDS011;68119;43.398;3.676;2023-03-01T02:57:44;10.00;;;6.85;;
78774;SDS011;68119;43.398;3.676;2023-03-01T03:00:24;9.80;;;7.00;;
78774;SDS011;68119;43.398;3.676;2023-03-01T03:02:58;9.57;;;6.88;;
78774;SDS011;68119;43.398;3.676;2023-03-01T03:05:27;9.95;;;6.88;;
78774;SDS011;68119;43.398;3.676;2023-03-01T03:07:59;11.65;;;7.30;;
78774;SDS011;68119;43.398;3.676;2023-03-01T03:10:40;10.15;;;6.85;;
78774;SDS011;68119;43.398;3.676;2023-03-01T03:13:07;10.80;;;7.80;;
78774;SDS011;68119;43.398;3.676;2023-03-01T03:15:47;10.77;;;8.10;;
78774;SDS011;68119;43.398;3.676;2023-03-01T03:18:16;10.43;;;7.90;;
78774;SDS011;68119;43.398;3.676;2023-03-01T03:20:47;11.77;;;8.23;;
78774;SDS011;68119;43.398;3.676;2023-03-01T03:23:18;11.20;;;8.40;;
78774;SDS011;68119;43.398;3.676;2023-03-01T03:25:44;11.57;;;7.38;;
78774;SDS011;68119;43.398;3.676;2023-03-01T03:28:18;10.45;;;7.85;;
78774;SDS011;68119;43.398;3.676;2023-03-01T03:30:49;11.33;;;8.43;;
78774;SDS011;68119;43.398;3.676;2023-03-01T03:33:14;10.48;;;8.57;;
78774;SDS011;68119;43.398;3.676;2023-03-01T03:35:44;18.55;;;8.40;;
78774;SDS011;68119;43.398;3.676;2023-03-01T03:38:13;10.80;;;8.32;;
78774;SDS011;68119;43.398;3.676;2023-03-01T03:40:45;14.90;;;9.32;;
78774;SDS011;68119;43.398;3.676;2023-03-01T03:43:17;12.30;;;8.52;;
78774;SDS011;68119;43.398;3.676;2023-03-01T03:45:45;10.88;;;8.40;;
78774;SDS011;68119;43.398;3.676;2023-03-01T03:48:14;11.70;;;8.80;;
78774;SDS011;68119;43.398;3.676;2023-03-01T03:50:50;12.43;;;8.63;;
78774;SDS011;68119;43.398;3.676;2023-03-01T03:53:19;12.77;;;9.57;;
78774;SDS011;68119;43.398;3.676;2023-03-01T03:55:47;13.77;;;9.60;;
78774;SDS011;68119;43.398;3.676;2023-03-01T03:58:19;14.23;;;9.85;;
78774;SDS011;68119;43.398;3.676;2023-03-01T04:00:51;11.13;;;8.73;;
78774;SDS011;68119;43.398;3.676;2023-03-01T04:03:18;12.48;;;9.55;;
78774;SDS011;68119;43.398;3.676;2023-03-01T04:05:48;11.40;;;9.23;;
78774;SDS011;68119;43.398;3.676;2023-03-01T04:08:15;13.93;;;10.15;;
78774;SDS011;68119;43.398;3.676;2023-03-01T04:10:46;12.55;;;9.60;;
78774;SDS011;68119;43.398;3.676;2023-03-01T04:13:21;12.00;;;9.75;;
78774;SDS011;68119;43.398;3.676;2023-03-01T04:15:53;12.60;;;9.13;;
78774;SDS011;68119;43.398;3.676;2023-03-01T04:18:19;13.15;;;9.75;;
78774;SDS011;68119;43.398;3.676;2023-03-01T04:20:49;12.70;;;10.30;;
78774;SDS011;68119;43.398;3.676;2023-03-01T04:23:18;13.90;;;9.45;;
78774;SDS011;68119;43.398;3.676;2023-03-01T04:28:30;15.18;;;9.95;;
78774;SDS011;68119;43.398;3.676;2023-03-01T04:31:05;12.10;;;9.27;;
78774;SDS011;68119;43.398;3.676;2023-03-01T04:36:15;11.82;;;9.07;;
78774;SDS011;68119;43.398;3.676;2023-03-01T04:41:16;12.93;;;8.90;;
78774;SDS011;68119;43.398;3.676;2023-03-01T04:43:44;12.23;;;8.95;;
78774;SDS011;68119;43.398;3.676;2023-03-01T04:46:16;12.05;;;9.15;;
78774;SDS011;68119;43.398;3.676;2023-03-01T04:48:44;11.98;;;9.02;;
78774;SDS011;68119;43.398;3.676;2023-03-01T04:51:12;11.05;;;8.20;;
78774;SDS011;68119;43.398;3.676;2023-03-01T04:53:38;10.73;;;8.95;;
78774;SDS011;68119;43.398;3.676;2023-03-01T04:56:10;11.70;;;8.60;;
78774;SDS011;68119;43.398;3.676;2023-03-01T04:58:38;11.30;;;8.45;;
78774;SDS011;68119;43.398;3.676;2023-03-01T05:01:10;9.70;;;7.97;;
78774;SDS011;68119;43.398;3.676;2023-03-01T05:06:30;9.93;;;7.72;;
78774;SDS011;68119;43.398;3.676;2023-03-01T05:09:01;12.40;;;8.30;;
78774;SDS011;68119;43.398;3.676;2023-03-01T05:11:27;10.55;;;8.27;;
78774;SDS011;68119;43.398;3.676;2023-03-01T05:13:58;12.27;;;8.27;;
78774;SDS011;68119;43.398;3.676;2023-03-01T05:16:26;12.60;;;8.73;;
78774;SDS011;68119;43.398;3.676;2023-03-01T05:18:59;12.18;;;7.72;;
78774;SDS011;68119;43.398;3.676;2023-03-01T05:21:41;10.52;;;7.60;;
78774;SDS011;68119;43.398;3.676;2023-03-01T05:24:32;10.32;;;7.85;;
78774;SDS011;68119;43.398;3.676;2023-03-01T05:27:06;9.82;;;7.55;;
78774;SDS011;68119;43.398;3.676;2023-03-01T05:29:37;12.45;;;8.20;;
78774;SDS011;68119;43.398;3.676;2023-03-01T05:32:07;9.63;;;7.82;;
78774;SDS011;68119;43.398;3.676;2023-03-01T05:34:41;9.98;;;7.70;;
78774;SDS011;68119;43.398;3.676;2023-03-01T05:37:16;10.00;;;7.68;;
78774;SDS011;68119;43.398;3.676;2023-03-01T05:39:48;9.52;;;7.38;;
78774;SDS011;68119;43.398;3.676;2023-03-01T05:42:16;11.55;;;7.70;;
78774;SDS011;68119;43.398;3.676;2023-03-01T05:44:47;10.97;;;7.17;;
78774;SDS011;68119;43.398;3.676;2023-03-01T05:47:18;11.55;;;7.70;;
78774;SDS011;68119;43.398;3.676;2023-03-01T05:49:46;12.25;;;7.50;;
78774;SDS011;68119;43.398;3.676;2023-03-01T05:52:14;12.40;;;7.88;;
78774;SDS011;68119;43.398;3.676;2023-03-01T05:54:42;12.60;;;7.65;;
78774;SDS011;68119;43.398;3.676;2023-03-01T05:57:11;9.45;;;7.32;;
78774;SDS011;68119;43.398;3.676;2023-03-01T05:59:47;9.68;;;7.75;;
78774;SDS011;68119;43.398;3.676;2023-03-01T06:02:19;13.23;;;7.65;;
78774;SDS011;68119;43.398;3.676;2023-03-01T06:04:51;10.77;;;8.13;;
78774;SDS011;68119;43.398;3.676;2023-03-01T06:07:25;9.55;;;7.57;;
78774;SDS011;68119;43.398;3.676;2023-03-01T06:09:50;8.88;;;7.13;;
78774;SDS011;68119;43.398;3.676;2023-03-01T06:12:19;12.70;;;7.65;;
78774;SDS011;68119;43.398;3.676;2023-03-01T06:14:47;12.90;;;7.93;;
78774;SDS011;68119;43.398;3.676;2023-03-01T06:17:19;12.32;;;7.38;;
78774;SDS011;68119;43.398;3.676;2023-03-01T06:19:49;10.83;;;7.50;;
78774;SDS011;68119;43.398;3.676;2023-03-01T06:22:23;11.00;;;7.32;;
78774;SDS011;68119;43.398;3.676;2023-03-01T06:24:51;10.80;;;7.47;;
78774;SDS011;68119;43.398;3.676;2023-03-01T06:27:19;8.45;;;6.60;;
78774;SDS011;68119;43.398;3.676;2023-03-01T06:29:51;9.32;;;6.95;;
78774;SDS011;68119;43.398;3.676;2023-03-01T06:32:22;10.47;;;7.53;;
78774;SDS011;68119;43.398;3.676;2023-03-01T06:34:52;10.07;;;7.20;;
78774;SDS011;68119;43.398;3.676;2023-03-01T06:37:23;10.77;;;7.00;;
78774;SDS011;68119;43.398;3.676;2023-03-01T06:39:49;12.35;;;7.28;;
78774;SDS011;68119;43.398;3.676;2023-03-01T06:42:23;9.57;;;7.05;;
78774;SDS011;68119;43.398;3.676;2023-03-01T06:44:53;10.02;;;7.20;;
78774;SDS011;68119;43.398;3.676;2023-03-01T06:47:24;12.25;;;7.45;;
78774;SDS011;68119;43.398;3.676;2023-03-01T06:49:58;11.65;;;7.70;;
78774;SDS011;68119;43.398;3.676;2023-03-01T06:52:28;10.48;;;7.55;;
78774;SDS011;68119;43.398;3.676;2023-03-01T06:54:54;9.80;;;7.45;;
78774;SDS011;68119;43.398;3.676;2023-03-01T06:57:25;10.75;;;7.63;;
78774;SDS011;68119;43.398;3.676;2023-03-01T06:59:53;9.80;;;7.00;;
78774;SDS011;68119;43.398;3.676;2023-03-01T07:02:22;13.43;;;8.95;;
78774;SDS011;68119;43.398;3.676;2023-03-01T07:04:50;12.27;;;9.48;;
78774;SDS011;68119;43.398;3.676;2023-03-01T07:07:27;15.05;;;11.27;;
78774;SDS011;68119;43.398;3.676;2023-03-01T07:09:59;22.38;;;14.82;;
78774;SDS011;68119;43.398;3.676;2023-03-01T07:12:29;19.42;;;14.27;;
78774;SDS011;68119;43.398;3.676;2023-03-01T07:14:55;26.75;;;19.00;;
78774;SDS011;68119;43.398;3.676;2023-03-01T07:17:23;13.38;;;10.55;;
78774;SDS011;68119;43.398;3.676;2023-03-01T07:19:54;12.50;;;10.45;;
78774;SDS011;68119;43.398;3.676;2023-03-01T07:22:24;12.27;;;9.20;;
78774;SDS011;68119;43.398;3.676;2023-03-01T07:24:52;10.45;;;8.32;;
78774;SDS011;68119;43.398;3.676;2023-03-01T07:27:26;9.25;;;7.55;;
78774;SDS011;68119;43.398;3.676;2023-03-01T07:29:57;10.02;;;8.00;;
78774;SDS011;68119;43.398;3.676;2023-03-01T07:32:23;10.35;;;7.90;;
78774;SDS011;68119;43.398;3.676;2023-03-01T07:34:51;10.75;;;7.50;;
78774;SDS011;68119;43.398;3.676;2023-03-01T07:37:22;10.75;;;7.65;;
78774;SDS011;68119;43.398;3.676;2023-03-01T07:39:48;10.98;;;8.20;;
78774;SDS011;68119;43.398;3.676;2023-03-01T07:42:19;12.55;;;8.45;;
78774;SDS011;68119;43.398;3.676;2023-03-01T07:44:50;11.63;;;7.95;;
78774;SDS011;68119;43.398;3.676;2023-03-01T07:47:20;12.70;;;8.55;;
78774;SDS011;68119;43.398;3.676;2023-03-01T07:49:49;11.15;;;8.70;;
78774;SDS011;68119;43.398;3.676;2023-03-01T07:52:19;11.75;;;8.25;;
78774;SDS011;68119;43.398;3.676;2023-03-01T07:54:50;11.95;;;8.75;;
78774;SDS011;68119;43.398;3.676;2023-03-01T07:57:20;11.10;;;9.20;;
78774;SDS011;68119;43.398;3.676;2023-03-01T07:59:52;13.70;;;8.10;;
78774;SDS011;68119;43.398;3.676;2023-03-01T08:02:18;10.85;;;8.73;;
78774;SDS011;68119;43.398;3.676;2023-03-01T08:04:46;14.55;;;9.23;;
78774;SDS011;68119;43.398;3.676;2023-03-01T08:07:14;12.55;;;9.50;;
78774;SDS011;68119;43.398;3.676;2023-03-01T08:09:45;13.07;;;10.13;;
78774;SDS011;68119;43.398;3.676;2023-03-01T08:12:11;11.73;;;10.30;;
78774;SDS011;68119;43.398;3.676;2023-03-01T08:14:41;14.52;;;10.55;;
78774;SDS011;68119;43.398;3.676;2023-03-01T08:17:09;15.82;;;10.23;;
78774;SDS011;68119;43.398;3.676;2023-03-01T08:19:35;12.65;;;9.90;;
78774;SDS011;68119;43.398;3.676;2023-03-01T08:22:06;12.68;;;10.00;;
78774;SDS011;68119;43.398;3.676;2023-03-01T08:24:31;14.07;;;10.25;;
78774;SDS011;68119;43.398;3.676;2023-03-01T08:27:03;13.93;;;10.93;;
78774;SDS011;68119;43.398;3.676;2023-03-01T08:29:36;13.98;;;10.90;;
78774;SDS011;68119;43.398;3.676;2023-03-01T08:32:04;13.60;;;11.15;;
78774;SDS011;68119;43.398;3.676;2023-03-01T08:34:34;12.98;;;11.02;;
78774;SDS011;68119;43.398;3.676;2023-03-01T08:37:04;14.07;;;11.07;;
78774;SDS011;68119;43.398;3.676;2023-03-01T08:39:35;14.27;;;11.40;;
78774;SDS011;68119;43.398;3.676;2023-03-01T08:42:04;12.55;;;10.52;;
78774;SDS011;68119;43.398;3.676;2023-03-01T08:44:37;14.60;;;10.82;;
78774;SDS011;68119;43.398;3.676;2023-03-01T08:47:08;15.35;;;11.57;;
78774;SDS011;68119;43.398;3.676;2023-03-01T08:49:45;13.27;;;10.40;;
78774;SDS011;68119;43.398;3.676;2023-03-01T08:52:13;13.70;;;11.23;;
78774;SDS011;68119;43.398;3.676;2023-03-01T08:54:41;13.02;;;10.93;;
78774;SDS011;68119;43.398;3.676;2023-03-01T08:57:09;12.93;;;10.95;;
78774;SDS011;68119;43.398;3.676;2023-03-01T08:59:35;12.40;;;10.65;;
78774;SDS011;68119;43.398;3.676;2023-03-01T09:02:14;12.07;;;10.80;;
78774;SDS011;68119;43.398;3.676;2023-03-01T09:04:47;12.80;;;10.95;;
78774;SDS011;68119;43.398;3.676;2023-03-01T09:07:15;14.18;;;10.73;;
78774;SDS011;68119;43.398;3.676;2023-03-01T09:09:53;12.05;;;10.30;;
78774;SDS011;68119;43.398;3.676;2023-03-01T09:12:21;11.73;;;9.75;;
78774;SDS011;68119;43.398;3.676;2023-03-01T09:14:58;10.73;;;9.63;;
78774;SDS011;68119;43.398;3.676;2023-03-01T09:17:26;14.27;;;11.25;;
78774;SDS011;68119;43.398;3.676;2023-03-01T09:19:54;11.43;;;10.07;;
78774;SDS011;68119;43.398;3.676;2023-03-01T09:22:22;12.52;;;10.35;;
78774;SDS011;68119;43.398;3.676;2023-03-01T09:24:50;12.13;;;10.67;;
78774;SDS011;68119;43.398;3.676;2023-03-01T09:27:27;12.35;;;10.65;;
78774;SDS011;68119;43.398;3.676;2023-03-01T09:29:58;12.30;;;10.48;;
78774;SDS011;68119;43.398;3.676;2023-03-01T09:32:28;12.00;;;10.20;;
78774;SDS011;68119;43.398;3.676;2023-03-01T09:34:58;11.80;;;10.10;;
78774;SDS011;68119;43.398;3.676;2023-03-01T09:37:31;12.60;;;10.30;;
78774;SDS011;68119;43.398;3.676;2023-03-01T09:40:06;10.85;;;9.63;;
78774;SDS011;68119;43.398;3.676;2023-03-01T09:42:45;14.15;;;9.48;;
78774;SDS011;68119;43.398;3.676;2023-03-01T09:45:37;14.38;;;9.35;;
78774;SDS011;68119;43.398;3.676;2023-03-01T09:48:17;15.25;;;9.85;;
78774;SDS011;68119;43.398;3.676;2023-03-01T09:50:51;14.27;;;9.35;;
78774;SDS011;68119;43.398;3.676;2023-03-01T09:53:20;15.63;;;9.63;;
78774;SDS011;68119;43.398;3.676;2023-03-01T10:01:08;10.05;;;8.77;;
78774;SDS011;68119;43.398;3.676;2023-03-01T10:03:42;12.65;;;9.07;;
78774;SDS011;68119;43.398;3.676;2023-03-01T10:06:15;11.65;;;9.27;;
78774;SDS011;68119;43.398;3.676;2023-03-01T10:11:31;10.85;;;9.43;;
78774;SDS011;68119;43.398;3.676;2023-03-01T10:17:00;10.93;;;9.73;;
78774;SDS011;68119;43.398;3.676;2023-03-01T10:19:47;12.57;;;10.02;;
78774;SDS011;68119;43.398;3.676;2023-03-01T10:22:27;11.65;;;10.07;;
78774;SDS011;68119;43.398;3.676;2023-03-01T10:24:57;15.48;;;10.38;;
78774;SDS011;68119;43.398;3.676;2023-03-01T10:27:34;11.68;;;10.18;;
78774;SDS011;68119;43.398;3.676;2023-03-01T10:32:49;12.98;;;10.15;;
78774;SDS011;68119;43.398;3.676;2023-03-01T10:35:27;12.45;;;9.52;;
78774;SDS011;68119;43.398;3.676;2023-03-01T10:40:49;12.90;;;10.20;;
78774;SDS011;68119;43.398;3.676;2023-03-01T10:43:22;12.93;;;9.85;;
78774;SDS011;68119;43.398;3.676;2023-03-01T10:46:01;11.68;;;9.68;;
78774;SDS011;68119;43.398;3.676;2023-03-01T10:48:27;10.73;;;9.13;;
78774;SDS011;68119;43.398;3.676;2023-03-01T10:53:33;11.50;;;9.85;;
78774;SDS011;68119;43.398;3.676;2023-03-01T10:56:06;14.50;;;9.95;;
78774;SDS011;68119;43.398;3.676;2023-03-01T10:58:36;12.40;;;9.38;;
78774;SDS011;68119;43.398;3.676;2023-03-01T11:03:55;11.55;;;10.13;;
78774;SDS011;68119;43.398;3.676;2023-03-01T11:06:34;12.55;;;10.05;;
78774;SDS011;68119;43.398;3.676;2023-03-01T11:09:13;11.38;;;9.38;;
78774;SDS011;68119;43.398;3.676;2023-03-01T11:11:57;11.40;;;9.00;;
78774;SDS011;68119;43.398;3.676;2023-03-01T11:14:25;10.95;;;8.80;;
78774;SDS011;68119;43.398;3.676;2023-03-01T11:17:04;10.38;;;8.93;;
78774;SDS011;68119;43.398;3.676;2023-03-01T11:19:44;11.90;;;9.10;;
78774;SDS011;68119;43.398;3.676;2023-03-01T11:22:25;12.23;;;9.05;;
78774;SDS011;68119;43.398;3.676;2023-03-01T11:24:54;10.63;;;9.15;;
78774;SDS011;68119;43.398;3.676;2023-03-01T11:27:33;11.98;;;9.68;;
78774;SDS011;68119;43.398;3.676;2023-03-01T11:33:04;10.82;;;8.20;;
78774;SDS011;68119;43.398;3.676;2023-03-01T11:36:01;9.68;;;8.20;;
78774;SDS011;68119;43.398;3.676;2023-03-01T11:38:51;9.88;;;8.43;;
78774;SDS011;68119;43.398;3.676;2023-03-01T11:41:25;11.20;;;7.68;;
78774;SDS011;68119;43.398;3.676;2023-03-01T11:44:02;8.80;;;7.20;;
78774;SDS011;68119;43.398;3.676;2023-03-01T12:05:22;9.98;;;6.30;;
78774;SDS011;68119;43.398;3.676;2023-03-01T12:08:10;7.15;;;5.85;;
78774;SDS011;68119;43.398;3.676;2023-03-01T12:13:59;9.02;;;5.95;;
78774;SDS011;68119;43.398;3.676;2023-03-01T12:22:30;9.40;;;6.43;;
78774;SDS011;68119;43.398;3.676;2023-03-01T12:25:07;6.57;;;5.45;;
78774;SDS011;68119;43.398;3.676;2023-03-01T12:27:51;7.47;;;5.43;;
78774;SDS011;68119;43.398;3.676;2023-03-01T12:34:11;6.75;;;5.68;;
78774;SDS011;68119;43.398;3.676;2023-03-01T12:36:54;6.90;;;6.00;;
78774;SDS011;68119;43.398;3.676;2023-03-01T12:39:49;7.13;;;5.78;;
78774;SDS011;68119;43.398;3.676;2023-03-01T12:47:52;8.10;;;5.90;;
78774;SDS011;68119;43.398;3.676;2023-03-01T12:50:26;7.05;;;5.95;;
78774;SDS011;68119;43.398;3.676;2023-03-01T12:53:22;7.47;;;5.32;;
78774;SDS011;68119;43.398;3.676;2023-03-01T12:55:52;8.13;;;5.18;;
78774;SDS011;68119;43.398;3.676;2023-03-01T13:15:26;6.65;;;4.90;;
78774;SDS011;68119;43.398;3.676;2023-03-01T13:18:47;9.75;;;5.00;;
78774;SDS011;68119;43.398;3.676;2023-03-01T13:20:53;6.82;;;4.30;;
78774;SDS011;68119;43.398;3.676;2023-03-01T13:23:26;6.38;;;4.15;;
78774;SDS011;68119;43.398;3.676;2023-03-01T13:26:12;6.53;;;4.57;;
78774;SDS011;68119;43.398;3.676;2023-03-01T13:28:49;5.93;;;4.60;;
78774;SDS011;68119;43.398;3.676;2023-03-01T13:37:21;7.13;;;5.28;;
78774;SDS011;68119;43.398;3.676;2023-03-01T13:39:48;8.93;;;5.10;;
78774;SDS011;68119;43.398;3.676;2023-03-01T13:42:39;6.10;;;5.07;;
78774;SDS011;68119;43.398;3.676;2023-03-01T13:47:44;5.90;;;4.75;;
78774;SDS011;68119;43.398;3.676;2023-03-01T13:50:18;8.52;;;4.88;;
78774;SDS011;68119;43.398;3.676;2023-03-01T13:58:25;5.85;;;4.72;;
78774;SDS011;68119;43.398;3.676;2023-03-01T14:01:25;6.38;;;4.53;;
78774;SDS011;68119;43.398;3.676;2023-03-01T14:03:47;6.10;;;4.22;;
78774;SDS011;68119;43.398;3.676;2023-03-01T14:06:19;7.05;;;4.10;;
78774;SDS011;68119;43.398;3.676;2023-03-01T14:08:49;5.28;;;3.80;;
78774;SDS011;68119;43.398;3.676;2023-03-01T14:19:25;4.88;;;3.58;;
78774;SDS011;68119;43.398;3.676;2023-03-01T14:22:29;5.38;;;3.75;;
78774;SDS011;68119;43.398;3.676;2023-03-01T14:24:54;5.88;;;4.00;;
78774;SDS011;68119;43.398;3.676;2023-03-01T14:27:40;5.05;;;3.80;;
78774;SDS011;68119;43.398;3.676;2023-03-01T14:30:24;6.00;;;4.28;;
78774;SDS011;68119;43.398;3.676;2023-03-01T14:32:59;8.13;;;4.72;;
78774;SDS011;68119;43.398;3.676;2023-03-01T14:35:34;5.18;;;4.18;;
78774;SDS011;68119;43.398;3.676;2023-03-01T14:40:30;5.13;;;3.90;;
78774;SDS011;68119;43.398;3.676;2023-03-01T14:42:57;5.45;;;4.20;;
78774;SDS011;68119;43.398;3.676;2023-03-01T14:45:25;5.55;;;4.18;;
78774;SDS011;68119;43.398;3.676;2023-03-01T14:47:55;4.85;;;3.90;;
78774;SDS011;68119;43.398;3.676;2023-03-01T14:50:30;5.45;;;4.30;;
78774;SDS011;68119;43.398;3.676;2023-03-01T14:53:05;5.60;;;3.90;;
78774;SDS011;68119;43.398;3.676;2023-03-01T14:55:43;4.85;;;4.20;;
78774;SDS011;68119;43.398;3.676;2023-03-01T14:58:20;5.05;;;4.32;;
78774;SDS011;68119;43.398;3.676;2023-03-01T15:00:56;6.40;;;4.10;;
78774;SDS011;68119;43.398;3.676;2023-03-01T15:03:43;6.85;;;4.10;;
78774;SDS011;68119;43.398;3.676;2023-03-01T15:06:17;4.95;;;4.05;;
78774;SDS011;68119;43.398;3.676;2023-03-01T15:08:53;4.18;;;3.72;;
78774;SDS011;68119;43.398;3.676;2023-03-01T15:11:23;6.00;;;4.35;;
78774;SDS011;68119;43.398;3.676;2023-03-01T15:13:56;4.88;;;3.90;;
78774;SDS011;68119;43.398;3.676;2023-03-01T15:16:33;5.57;;;4.40;;
78774;SDS011;68119;43.398;3.676;2023-03-01T15:19:15;5.93;;;4.50;;
78774;SDS011;68119;43.398;3.676;2023-03-01T15:21:49;7.28;;;4.40;;
78774;SDS011;68119;43.398;3.676;2023-03-01T15:24:24;5.88;;;4.53;;
78774;SDS011;68119;43.398;3.676;2023-03-01T15:27:04;5.13;;;4.07;;
78774;SDS011;68119;43.398;3.676;2023-03-01T15:29:44;5.40;;;4.47;;
78774;SDS011;68119;43.398;3.676;2023-03-01T15:32:34;6.75;;;4.55;;
78774;SDS011;68119;43.398;3.676;2023-03-01T15:38:50;8.32;;;5.10;;
78774;SDS011;68119;43.398;3.676;2023-03-01T15:44:13;7.00;;;4.90;;
78774;SDS011;68119;43.398;3.676;2023-03-01T15:46:57;7.63;;;5.15;;
78774;SDS011;68119;43.398;3.676;2023-03-01T15:49:38;9.40;;;5.13;;
78774;SDS011;68119;43.398;3.676;2023-03-01T15:52:11;6.65;;;5.18;;
78774;SDS011;68119;43.398;3.676;2023-03-01T15:55:15;6.50;;;5.10;;
78774;SDS011;68119;43.398;3.676;2023-03-01T15:57:47;12.65;;;5.45;;
78774;SDS011;68119;43.398;3.676;2023-03-01T16:00:30;8.75;;;5.00;;
78774;SDS011;68119;43.398;3.676;2023-03-01T16:03:04;7.05;;;5.10;;
78774;SDS011;68119;43.398;3.676;2023-03-01T16:05:38;7.10;;;5.68;;
78774;SDS011;68119;43.398;3.676;2023-03-01T16:08:06;8.35;;;5.47;;
78774;SDS011;68119;43.398;3.676;2023-03-01T16:10:35;8.30;;;5.20;;
78774;SDS011;68119;43.398;3.676;2023-03-01T16:13:17;7.53;;;5.80;;
78774;SDS011;68119;43.398;3.676;2023-03-01T16:15:52;7.10;;;5.85;;
78774;SDS011;68119;43.398;3.676;2023-03-01T16:18:26;8.45;;;6.45;;
78774;SDS011;68119;43.398;3.676;2023-03-01T16:20:59;8.10;;;6.47;;
78774;SDS011;68119;43.398;3.676;2023-03-01T16:23:38;9.57;;;7.32;;
78774;SDS011;68119;43.398;3.676;2023-03-01T16:26:08;10.00;;;7.38;;
78774;SDS011;68119;43.398;3.676;2023-03-01T16:28:46;11.98;;;7.90;;
78774;SDS011;68119;43.398;3.676;2023-03-01T16:31:22;13.52;;;9.55;;
78774;SDS011;68119;43.398;3.676;2023-03-01T16:33:58;11.30;;;8.63;;
78774;SDS011;68119;43.398;3.676;2023-03-01T16:36:32;14.35;;;8.95;;
78774;SDS011;68119;43.398;3.676;2023-03-01T16:39:06;15.10;;;10.10;;
78774;SDS011;68119;43.398;3.676;2023-03-01T16:41:40;14.45;;;9.45;;
78774;SDS011;68119;43.398;3.676;2023-03-01T16:44:13;11.73;;;9.07;;
78774;SDS011;68119;43.398;3.676;2023-03-01T16:46:42;9.77;;;8.30;;
78774;SDS011;68119;43.398;3.676;2023-03-01T16:49:13;10.45;;;8.60;;
78774;SDS011;68119;43.398;3.676;2023-03-01T16:51:39;9.70;;;8.00;;
78774;SDS011;68119;43.398;3.676;2023-03-01T16:54:05;10.40;;;8.55;;
78774;SDS011;68119;43.398;3.676;2023-03-01T16:56:34;11.55;;;8.63;;
78774;SDS011;68119;43.398;3.676;2023-03-01T16:59:04;11.00;;;8.65;;
78774;SDS011;68119;43.398;3.676;2023-03-01T17:01:32;10.40;;;8.85;;
78774;SDS011;68119;43.398;3.676;2023-03-01T17:03:59;13.98;;;8.98;;
78774;SDS011;68119;43.398;3.676;2023-03-01T17:06:28;14.60;;;9.20;;
78774;SDS011;68119;43.398;3.676;2023-03-01T17:08:54;11.13;;;8.63;;
78774;SDS011;68119;43.398;3.676;2023-03-01T17:11:22;12.30;;;9.20;;
78774;SDS011;68119;43.398;3.676;2023-03-01T17:13:53;13.30;;;9.57;;
78774;SDS011;68119;43.398;3.676;2023-03-01T17:16:24;12.80;;;9.32;;
78774;SDS011;68119;43.398;3.676;2023-03-01T17:18:55;12.88;;;9.35;;